Time;durP1;ratioP1;P1;durP2;ratioP2;P2;SDS_P1;SDS_P2;PMS_P1;PMS_P2;Temp;Humidity;BMP_temperature;BMP_pressure;BME280_temperature;BME280_humidity;BME280_pressure;Samples;Min_cycle;Max_cycle;Signal;HPM_P1;HPM_P2
2023/09/01 00:01:03;;;;;;;10.52;3.50;;;16.50;89.40;;;;;;5032676;28;20050;-83
2023/09/01 00:03:29;;;;;;;10.73;3.70;;;16.50;89.50;;;;;;5014683;28;20025;-82
2023/09/01 00:05:55;;;;;;;11.20;3.15;;;16.50;89.60;;;;;;5032296;28;20112;-82
2023/09/01 00:08:20;;;;;;;10.25;3.03;;;16.40;89.70;;;;;;5014020;28;20025;-82
2023/09/01 00:10:46;;;;;;;9.23;2.78;;;16.40;89.70;;;;;;5014642;28;20025;-82
2023/09/01 00:13:12;;;;;;;12.68;3.72;;;16.30;89.70;;;;;;5013977;28;20053;-81
2023/09/01 00:15:37;;;;;;;8.57;2.95;;;16.30;89.90;;;;;;5014633;28;20037;-81
2023/09/01 00:18:04;;;;;;;9.93;3.17;;;16.20;90.00;;;;;;5014015;28;20110;-82
2023/09/01 00:20:34;;;;;;;6.63;2.88;;;16.30;90.00;;;;;;5014380;28;20116;-81
2023/09/01 00:23:01;;;;;;;9.18;3.25;;;16.30;90.10;;;;;;5014539;28;20022;-82
2023/09/01 00:25:27;;;;;;;9.48;3.22;;;16.30;90.10;;;;;;5031921;28;20021;-81
2023/09/01 00:27:53;;;;;;;9.20;3.42;;;16.30;90.20;;;;;;5031373;28;20409;-81
2023/09/01 00:30:18;;;;;;;7.43;3.33;;;16.30;90.30;;;;;;5031842;28;20381;-81
2023/09/01 00:32:44;;;;;;;9.13;3.45;;;16.30;90.30;;;;;;5014337;28;20026;-81
2023/09/01 00:35:09;;;;;;;9.65;3.38;;;16.20;90.40;;;;;;5014226;28;20028;-82
2023/09/01 00:37:35;;;;;;;10.68;3.92;;;16.20;90.40;;;;;;5013832;28;20542;-81
2023/09/01 00:40:01;;;;;;;6.78;3.28;;;16.20;90.50;;;;;;5014343;28;20112;-81
2023/09/01 00:42:26;;;;;;;8.25;2.88;;;16.20;90.60;;;;;;5013998;28;20018;-82
2023/09/01 00:44:52;;;;;;;9.32;3.38;;;16.10;90.60;;;;;;5032160;28;20052;-85
2023/09/01 00:47:18;;;;;;;8.98;3.65;;;16.20;90.70;;;;;;5014289;28;20041;-85
2023/09/01 00:49:43;;;;;;;12.00;3.25;;;16.10;90.70;;;;;;5032686;28;20025;-85
2023/09/01 00:52:09;;;;;;;8.10;3.17;;;16.20;90.70;;;;;;5017515;28;20017;-85
2023/09/01 00:54:35;;;;;;;6.60;2.90;;;16.00;90.70;;;;;;5014468;28;20029;-84
2023/09/01 00:57:00;;;;;;;11.27;3.60;;;16.10;90.80;;;;;;5014820;28;20057;-85
2023/09/01 00:59:26;;;;;;;7.75;3.50;;;16.10;90.80;;;;;;5032168;28;20033;-85
2023/09/01 01:01:53;;;;;;;8.35;3.42;;;16.00;90.90;;;;;;5014107;28;20024;-85
2023/09/01 01:04:22;;;;;;;9.40;3.00;;;16.00;91.00;;;;;;5031830;28;20029;-84
2023/09/01 01:07:22;;;;;;;6.93;2.92;;;16.00;91.00;;;;;;5016524;28;20087;-84
2023/09/01 01:10:01;;;;;;;8.43;3.35;;;16.00;91.20;;;;;;5033516;28;20021;-85
2023/09/01 01:13:00;;;;;;;9.50;4.13;;;16.00;91.20;;;;;;5014685;28;20026;-84
2023/09/01 01:15:27;;;;;;;11.80;3.40;;;15.90;91.20;;;;;;5015481;28;20055;-85
2023/09/01 01:17:55;;;;;;;9.75;3.60;;;16.00;91.30;;;;;;5016402;28;20072;-84
2023/09/01 01:20:38;;;;;;;8.07;3.72;;;16.00;91.30;;;;;;5031992;28;20478;-86
2023/09/01 01:23:17;;;;;;;8.38;3.85;;;16.00;91.50;;;;;;5014711;28;20025;-85
2023/09/01 01:25:50;;;;;;;10.32;3.75;;;15.90;91.50;;;;;;5033129;28;20080;-85
2023/09/01 01:28:16;;;;;;;12.05;3.83;;;15.90;91.60;;;;;;5017690;28;20036;-85
2023/09/01 01:30:42;;;;;;;11.18;4.35;;;15.90;91.60;;;;;;5017827;28;20021;-83
2023/09/01 01:33:47;;;;;;;11.48;3.92;;;15.90;91.70;;;;;;5017827;28;20039;-84
2023/09/01 01:36:18;;;;;;;9.65;3.97;;;15.90;91.70;;;;;;5034091;28;20033;-83
2023/09/01 01:38:49;;;;;;;10.65;3.85;;;15.80;91.70;;;;;;5017270;28;20040;-84
2023/09/01 01:41:19;;;;;;;9.77;3.05;;;15.80;91.80;;;;;;5034851;28;20025;-85
2023/09/01 01:43:49;;;;;;;12.30;3.65;;;15.70;91.80;;;;;;5035572;28;20025;-85
2023/09/01 01:46:15;;;;;;;7.90;3.38;;;15.70;91.90;;;;;;5017564;28;20025;-84
2023/09/01 01:48:41;;;;;;;10.82;3.90;;;15.70;92.00;;;;;;5035531;28;20036;-86
2023/09/01 01:51:06;;;;;;;11.02;4.03;;;15.70;92.10;;;;;;5018010;28;20386;-85
2023/09/01 01:53:34;;;;;;;10.45;4.55;;;15.60;92.10;;;;;;5035346;28;20030;-85
2023/09/01 01:56:00;;;;;;;10.77;3.88;;;15.60;92.20;;;;;;5035349;28;20022;-85
2023/09/01 01:58:27;;;;;;;10.10;4.28;;;15.60;92.30;;;;;;5034210;28;20018;-83
2023/09/01 02:00:52;;;;;;;11.45;4.30;;;15.60;92.40;;;;;;5017057;28;20135;-83
2023/09/01 02:03:18;;;;;;;7.50;3.67;;;15.60;92.80;;;;;;5017248;28;20513;-84
2023/09/01 02:05:43;;;;;;;10.82;4.28;;;15.60;92.60;;;;;;5016669;28;20022;-84
2023/09/01 02:08:09;;;;;;;10.13;4.05;;;15.60;92.70;;;;;;5017090;28;20124;-83
2023/09/01 02:10:34;;;;;;;9.27;3.70;;;15.50;92.80;;;;;;5017235;28;20021;-83
2023/09/01 02:13:01;;;;;;;6.13;3.50;;;15.50;92.90;;;;;;5034933;28;20029;-86
2023/09/01 02:15:26;;;;;;;14.73;4.95;;;15.60;93.00;;;;;;5034856;28;20022;-85
2023/09/01 02:17:52;;;;;;;8.25;3.38;;;15.60;93.10;;;;;;5035015;28;20033;-84
2023/09/01 02:20:18;;;;;;;10.50;4.20;;;15.60;93.20;;;;;;5017374;28;20422;-85
2023/09/01 02:22:45;;;;;;;7.43;3.72;;;15.50;93.20;;;;;;5017184;28;20085;-84
2023/09/01 02:25:12;;;;;;;9.68;4.45;;;15.50;93.30;;;;;;5016762;28;20045;-85
2023/09/01 02:27:40;;;;;;;10.95;4.50;;;15.50;93.40;;;;;;5017554;28;20037;-85
2023/09/01 02:30:10;;;;;;;9.30;4.03;;;15.50;93.50;;;;;;5034830;28;20014;-85
2023/09/01 02:32:40;;;;;;;8.90;3.85;;;15.50;93.60;;;;;;5034733;28;20101;-85
2023/09/01 02:35:08;;;;;;;7.55;3.95;;;15.50;93.70;;;;;;5032803;28;20446;-84
2023/09/01 02:37:33;;;;;;;7.03;3.92;;;15.40;93.80;;;;;;5016836;28;20496;-84
2023/09/01 02:40:00;;;;;;;9.68;4.35;;;15.40;93.90;;;;;;5016415;28;20029;-82
2023/09/01 02:42:26;;;;;;;10.52;4.00;;;15.40;94.00;;;;;;5016514;28;20044;-84
2023/09/01 02:44:52;;;;;;;9.00;3.70;;;15.40;94.00;;;;;;5016307;28;20638;-85
2023/09/01 02:47:17;;;;;;;11.23;3.80;;;15.40;94.00;;;;;;5016266;28;20090;-84
2023/09/01 02:49:43;;;;;;;9.63;4.25;;;15.40;94.10;;;;;;5016559;28;20029;-84
2023/09/01 02:52:09;;;;;;;7.78;3.90;;;15.40;94.10;;;;;;5016609;28;20029;-85
2023/09/01 02:54:35;;;;;;;8.60;3.60;;;15.40;94.20;;;;;;5016276;28;20021;-84
2023/09/01 02:57:00;;;;;;;8.32;3.45;;;15.40;94.20;;;;;;5016349;28;20025;-84
2023/09/01 02:59:26;;;;;;;10.50;4.72;;;15.40;94.20;;;;;;5033973;28;20492;-85
2023/09/01 03:01:52;;;;;;;11.82;3.83;;;15.40;94.30;;;;;;5033936;28;20072;-85
2023/09/01 03:04:17;;;;;;;9.73;4.60;;;15.40;94.40;;;;;;5016001;28;20013;-85
2023/09/01 03:06:43;;;;;;;10.88;3.83;;;15.40;94.40;;;;;;5016323;28;20481;-83
2023/09/01 03:09:10;;;;;;;10.48;3.88;;;15.40;94.40;;;;;;5033723;28;20466;-84
2023/09/01 03:11:35;;;;;;;9.02;4.03;;;15.30;94.40;;;;;;5016383;28;20524;-85
2023/09/01 03:14:01;;;;;;;8.68;4.70;;;15.30;94.50;;;;;;5033825;28;20041;-84
2023/09/01 03:16:30;;;;;;;7.65;4.22;;;15.30;94.60;;;;;;5033281;28;20029;-84
2023/09/01 03:18:59;;;;;;;10.93;3.78;;;15.30;94.60;;;;;;5015988;28;20030;-84
2023/09/01 03:21:26;;;;;;;9.80;3.92;;;15.30;94.60;;;;;;5015582;28;20048;-84
2023/09/01 03:23:52;;;;;;;7.55;3.85;;;15.30;94.60;;;;;;5016074;28;20029;-85
2023/09/01 03:26:19;;;;;;;9.23;4.15;;;15.20;94.70;;;;;;5015390;28;20048;-85
2023/09/01 03:28:45;;;;;;;8.50;4.15;;;15.30;94.80;;;;;;5016256;28;20458;-85
2023/09/01 03:31:11;;;;;;;8.05;3.60;;;15.30;94.80;;;;;;5033490;28;20037;-85
2023/09/01 03:33:36;;;;;;;8.20;3.22;;;15.30;94.90;;;;;;5015380;28;20029;-83
2023/09/01 03:36:07;;;;;;;9.35;3.75;;;15.30;95.00;;;;;;5015551;28;20049;-84
2023/09/01 03:38:33;;;;;;;8.10;3.97;;;15.30;95.10;;;;;;5033844;28;20033;-85
2023/09/01 03:41:04;;;;;;;12.13;4.70;;;15.30;95.20;;;;;;5032804;28;20033;-86
2023/09/01 03:43:30;;;;;;;10.43;4.32;;;15.30;95.20;;;;;;5032981;28;20462;-83
2023/09/01 03:45:57;;;;;;;10.43;4.88;;;15.30;95.20;;;;;;5015237;28;20017;-84
2023/09/01 03:48:23;;;;;;;8.43;4.15;;;15.30;95.30;;;;;;5014416;28;20033;-85
2023/09/01 03:51:22;;;;;;;13.23;5.05;;;15.40;95.40;;;;;;5032626;28;20029;-83
2023/09/01 03:53:48;;;;;;;10.70;4.28;;;15.40;95.50;;;;;;5013974;28;20029;-83
2023/09/01 03:56:17;;;;;;;9.50;4.63;;;15.30;95.50;;;;;;4995518;28;20029;-84
2023/09/01 03:58:43;;;;;;;8.48;4.57;;;15.30;95.50;;;;;;5013113;28;20036;-84
2023/09/01 04:01:09;;;;;;;12.30;5.10;;;15.30;95.60;;;;;;4995079;28;20025;-84
2023/09/01 04:03:41;;;;;;;14.02;5.47;;;15.40;95.70;;;;;;5012498;28;20504;-85
2023/09/01 04:06:07;;;;;;;9.40;4.78;;;15.40;96.10;;;;;;4994844;28;20426;-85
2023/09/01 04:08:34;;;;;;;10.02;4.90;;;15.30;95.80;;;;;;5012974;28;20030;-84
2023/09/01 04:11:03;;;;;;;14.13;5.65;;;15.30;95.90;;;;;;4994770;28;20049;-85
2023/09/01 04:13:31;;;;;;;11.20;5.10;;;15.30;95.90;;;;;;5012443;28;20084;-84
2023/09/01 04:15:56;;;;;;;9.75;4.75;;;15.40;96.00;;;;;;5012849;28;20134;-85
2023/09/01 04:18:23;;;;;;;8.65;5.18;;;15.40;96.10;;;;;;4995248;28;20506;-85
2023/09/01 04:20:53;;;;;;;9.73;4.20;;;15.30;96.10;;;;;;4995384;28;20029;-85
2023/09/01 04:23:19;;;;;;;12.38;5.35;;;15.40;96.20;;;;;;5012231;28;20057;-82
2023/09/01 04:25:46;;;;;;;11.48;5.75;;;15.40;96.20;;;;;;5012417;28;20034;-83
2023/09/01 04:28:13;;;;;;;12.30;5.97;;;15.40;96.30;;;;;;4994710;28;20037;-82
2023/09/01 04:30:39;;;;;;;13.50;6.00;;;15.40;96.30;;;;;;4994981;28;20037;-81
2023/09/01 04:33:06;;;;;;;8.98;4.75;;;15.50;96.40;;;;;;5012077;28;20386;-81
2023/09/01 04:35:32;;;;;;;10.48;4.95;;;15.50;96.40;;;;;;4994457;28;20026;-81
2023/09/01 04:37:58;;;;;;;8.45;4.95;;;15.50;96.40;;;;;;4994027;28;20022;-82
2023/09/01 04:40:25;;;;;;;12.75;5.53;;;15.50;96.40;;;;;;4994368;28;20018;-81
2023/09/01 04:42:50;;;;;;;10.93;4.90;;;15.50;96.40;;;;;;4994440;28;20038;-82
2023/09/01 04:45:16;;;;;;;11.85;5.30;;;15.50;96.40;;;;;;4994271;28;20022;-83
2023/09/01 04:47:42;;;;;;;10.60;5.47;;;15.50;96.40;;;;;;4994279;28;20474;-83
2023/09/01 04:50:07;;;;;;;10.02;5.03;;;15.40;96.40;;;;;;4994306;28;20033;-83
2023/09/01 04:52:33;;;;;;;9.75;4.43;;;15.50;96.50;;;;;;4995089;28;20037;-83
2023/09/01 04:54:59;;;;;;;11.45;5.72;;;15.50;96.50;;;;;;4994643;28;20467;-84
2023/09/01 04:57:24;;;;;;;10.35;4.60;;;15.50;96.60;;;;;;4994992;28;20459;-84
2023/09/01 04:59:50;;;;;;;10.95;5.03;;;15.50;96.60;;;;;;4996978;28;20130;-83
2023/09/01 05:02:17;;;;;;;11.38;5.57;;;15.50;96.70;;;;;;4998278;28;20037;-82
2023/09/01 05:04:42;;;;;;;10.73;5.15;;;15.50;96.80;;;;;;5016199;28;20041;-82
2023/09/01 05:07:08;;;;;;;12.65;5.93;;;15.50;96.80;;;;;;4998599;28;20037;-82
2023/09/01 05:09:33;;;;;;;11.82;5.65;;;15.50;96.90;;;;;;4998627;28;20108;-83
2023/09/01 05:11:59;;;;;;;11.90;5.35;;;15.50;96.90;;;;;;5015664;28;20041;-82
2023/09/01 05:14:25;;;;;;;10.77;4.63;;;15.50;96.90;;;;;;4998231;28;20132;-82
2023/09/01 05:16:51;;;;;;;14.63;5.95;;;15.50;97.00;;;;;;4998095;28;20458;-82
2023/09/01 05:19:16;;;;;;;10.13;5.32;;;15.60;97.10;;;;;;4998877;28;20033;-83
2023/09/01 05:21:42;;;;;;;11.73;5.38;;;15.50;97.40;;;;;;4998129;28;20034;-83
2023/09/01 05:24:08;;;;;;;12.88;6.10;;;15.60;97.20;;;;;;4998263;28;20032;-82
2023/09/01 05:26:34;;;;;;;10.05;5.82;;;15.60;97.20;;;;;;5015193;28;20038;-82
2023/09/01 05:29:00;;;;;;;11.70;6.07;;;15.60;97.30;;;;;;5015373;28;20033;-83
2023/09/01 05:31:26;;;;;;;11.73;6.05;;;15.70;97.30;;;;;;4998128;28;20018;-83
2023/09/01 05:33:51;;;;;;;12.85;6.13;;;15.70;97.30;;;;;;5015547;28;21003;-82
2023/09/01 05:36:17;;;;;;;12.48;5.80;;;15.70;97.40;;;;;;4997916;28;20029;-83
2023/09/01 05:38:42;;;;;;;12.50;6.30;;;15.70;97.40;;;;;;5015452;28;20026;-83
2023/09/01 05:41:10;;;;;;;10.95;5.70;;;15.80;97.40;;;;;;4997940;28;20026;-80
2023/09/01 05:43:36;;;;;;;10.32;5.50;;;15.80;97.40;;;;;;4997031;28;20030;-86
2023/09/01 05:46:01;;;;;;;12.90;5.80;;;15.80;97.40;;;;;;4999006;28;20021;-86
2023/09/01 05:48:27;;;;;;;10.70;5.68;;;15.80;97.40;;;;;;4997873;28;20022;-82
2023/09/01 05:50:53;;;;;;;11.88;5.43;;;15.80;97.50;;;;;;4982953;28;20085;-81
2023/09/01 05:53:18;;;;;;;10.45;5.05;;;15.90;97.50;;;;;;4978918;28;20038;-81
2023/09/01 05:55:44;;;;;;;13.10;5.93;;;15.90;97.50;;;;;;4997289;28;20037;-80
2023/09/01 05:58:10;;;;;;;12.73;5.97;;;15.90;97.60;;;;;;4994739;28;20026;-81
2023/09/01 06:00:35;;;;;;;10.57;5.97;;;16.00;97.60;;;;;;4994867;28;20018;-81
2023/09/01 06:03:01;;;;;;;11.40;5.07;;;16.00;97.60;;;;;;4998642;28;21065;-81
2023/09/01 06:05:26;;;;;;;11.95;5.75;;;16.00;97.60;;;;;;4984196;28;20049;-83
2023/09/01 06:07:52;;;;;;;10.63;5.85;;;16.00;97.90;;;;;;4994965;28;20034;-80
2023/09/01 06:10:17;;;;;;;13.77;7.20;;;16.10;97.60;;;;;;5012310;28;20084;-81
2023/09/01 06:12:43;;;;;;;12.45;5.55;;;16.00;97.60;;;;;;4995908;28;20177;-80
2023/09/01 06:15:09;;;;;;;11.20;5.82;;;16.20;97.60;;;;;;5013724;28;20069;-80
2023/09/01 06:17:37;;;;;;;12.05;5.60;;;16.20;97.60;;;;;;4996128;28;20050;-81
2023/09/01 06:20:06;;;;;;;15.05;6.20;;;16.20;97.60;;;;;;5012900;28;20106;-81
2023/09/01 06:22:32;;;;;;;11.85;6.50;;;16.30;97.70;;;;;;4996492;28;20078;-81
2023/09/01 06:24:58;;;;;;;9.93;5.43;;;16.40;97.70;;;;;;5013168;28;20715;-81
2023/09/01 06:27:24;;;;;;;10.77;6.05;;;16.50;97.70;;;;;;4995601;28;20030;-82
2023/09/01 06:29:50;;;;;;;14.07;6.65;;;16.50;98.00;;;;;;4996850;28;20049;-81
2023/09/01 06:32:15;;;;;;;15.20;6.50;;;16.60;97.70;;;;;;5013621;28;20026;-80
2023/09/01 06:34:42;;;;;;;10.52;6.20;;;16.70;97.70;;;;;;5013207;28;20411;-81
2023/09/01 06:37:07;;;;;;;14.15;6.20;;;16.70;97.60;;;;;;5006330;28;20916;-80
2023/09/01 06:39:33;;;;;;;11.45;5.88;;;16.80;97.80;;;;;;4985748;28;20037;-82
2023/09/01 06:41:58;;;;;;;14.02;6.07;;;16.80;97.40;;;;;;5013324;28;20030;-82
2023/09/01 06:44:24;;;;;;;10.95;5.07;;;16.80;97.30;;;;;;5013672;28;20034;-82
2023/09/01 06:46:50;;;;;;;13.23;5.25;;;16.80;97.20;;;;;;5012531;28;20121;-82
2023/09/01 06:49:15;;;;;;;23.00;7.18;;;16.90;97.10;;;;;;4999955;28;20022;-83
2023/09/01 06:51:42;;;;;;;16.05;6.20;;;16.90;97.00;;;;;;5018290;28;20355;-83
2023/09/01 06:54:07;;;;;;;11.82;4.88;;;16.90;97.00;;;;;;5016945;28;20182;-82
2023/09/01 06:56:33;;;;;;;8.70;4.68;;;17.00;96.90;;;;;;4997672;28;20122;-81
2023/09/01 06:58:58;;;;;;;13.30;5.28;;;17.00;96.80;;;;;;5015028;28;20029;-83
2023/09/01 07:01:24;;;;;;;14.15;5.03;;;17.10;96.80;;;;;;5011659;28;20486;-83
2023/09/01 07:03:50;;;;;;;10.48;4.53;;;17.10;96.70;;;;;;5013747;28;20026;-82
2023/09/01 07:06:16;;;;;;;12.73;4.97;;;17.20;96.70;;;;;;4995472;28;20534;-81
2023/09/01 07:08:43;;;;;;;7.35;3.90;;;17.20;96.60;;;;;;5013653;28;20021;-81
2023/09/01 07:11:10;;;;;;;20.83;5.22;;;17.20;96.50;;;;;;4995612;28;20030;-82
2023/09/01 07:13:36;;;;;;;10.45;5.13;;;17.30;96.50;;;;;;5013514;28;20057;-82
2023/09/01 07:16:03;;;;;;;12.07;4.68;;;17.30;96.40;;;;;;5013120;28;20104;-81
2023/09/01 07:18:29;;;;;;;11.93;4.65;;;17.40;96.30;;;;;;4995407;28;20037;-81
2023/09/01 07:20:59;;;;;;;10.32;4.22;;;17.50;96.30;;;;;;4995119;28;20014;-82
2023/09/01 07:23:25;;;;;;;10.55;4.25;;;17.50;96.10;;;;;;5011909;28;20093;-81
2023/09/01 07:25:55;;;;;;;9.48;4.63;;;17.50;96.00;;;;;;4994706;28;20030;-81
2023/09/01 07:28:21;;;;;;;11.05;4.63;;;17.50;96.00;;;;;;4995106;28;20073;-81
2023/09/01 07:30:47;;;;;;;9.13;4.38;;;17.60;95.90;;;;;;4995501;28;20030;-81
2023/09/01 07:33:13;;;;;;;9.90;4.55;;;17.60;95.90;;;;;;5013107;28;20032;-81
2023/09/01 07:35:43;;;;;;;7.70;3.58;;;17.60;95.80;;;;;;5013020;28;20033;-82
2023/09/01 07:38:09;;;;;;;9.90;3.83;;;17.80;95.80;;;;;;5012993;28;20049;-81
2023/09/01 07:40:35;;;;;;;9.90;3.50;;;17.70;95.70;;;;;;5013036;28;20025;-81
2023/09/01 07:43:00;;;;;;;7.28;3.65;;;17.80;95.70;;;;;;5013150;28;20081;-84
2023/09/01 07:45:29;;;;;;;10.07;3.60;;;17.90;95.70;;;;;;5012715;28;20033;-84
2023/09/01 07:47:55;;;;;;;8.63;3.25;;;18.00;95.60;;;;;;5012994;28;20076;-85
2023/09/01 07:50:23;;;;;;;8.15;3.10;;;18.10;95.60;;;;;;5013063;28;20482;-84
2023/09/01 07:52:52;;;;;;;5.13;2.10;;;18.10;95.40;;;;;;4994911;28;20030;-83
2023/09/01 07:55:18;;;;;;;6.63;2.75;;;18.20;95.30;;;;;;5012814;28;20467;-84
2023/09/01 07:57:44;;;;;;;6.25;2.25;;;18.20;95.10;;;;;;5012782;28;20073;-84
2023/09/01 08:00:10;;;;;;;7.00;3.00;;;18.40;95.10;;;;;;5012511;28;20073;-84
2023/09/01 08:02:36;;;;;;;6.68;2.80;;;18.40;95.00;;;;;;4994393;28;20026;-83
2023/09/01 08:05:03;;;;;;;7.57;2.75;;;18.40;94.90;;;;;;5011225;28;20033;-84
2023/09/01 08:07:30;;;;;;;5.07;2.10;;;18.50;94.80;;;;;;5013047;28;20050;-84
2023/09/01 08:09:56;;;;;;;7.63;2.88;;;18.50;94.70;;;;;;4995202;28;20021;-84
2023/09/01 08:12:21;;;;;;;7.07;3.10;;;18.50;94.60;;;;;;4994255;28;20028;-84
2023/09/01 08:14:47;;;;;;;5.72;2.60;;;18.50;94.50;;;;;;4994813;28;20156;-84
2023/09/01 08:17:13;;;;;;;8.98;3.65;;;18.60;94.50;;;;;;4995731;28;20033;-84
2023/09/01 08:19:40;;;;;;;7.47;3.70;;;18.70;94.40;;;;;;5012583;28;20386;-84
2023/09/01 08:22:06;;;;;;;7.38;3.33;;;18.70;94.40;;;;;;4995179;28;20022;-83
2023/09/01 08:24:31;;;;;;;7.32;3.83;;;18.70;94.20;;;;;;5013309;28;20065;-84
2023/09/01 08:26:57;;;;;;;8.40;3.38;;;18.80;94.20;;;;;;4995193;28;20061;-84
2023/09/01 08:29:32;;;;;;;8.52;3.55;;;18.80;94.10;;;;;;4994391;28;20026;-84
2023/09/01 08:32:00;;;;;;;11.63;4.47;;;18.90;94.10;;;;;;4994673;28;20030;-84
2023/09/01 08:34:27;;;;;;;11.60;4.82;;;18.90;94.30;;;;;;4995026;28;20052;-84
2023/09/01 08:36:52;;;;;;;9.88;4.03;;;18.90;93.90;;;;;;4995219;28;20025;-83
2023/09/01 08:39:18;;;;;;;10.65;4.18;;;19.00;93.90;;;;;;5012419;28;20116;-83
2023/09/01 08:41:45;;;;;;;12.77;4.28;;;19.00;93.80;;;;;;4994558;28;20029;-84
2023/09/01 08:44:12;;;;;;;8.48;4.22;;;19.00;93.60;;;;;;4995224;28;20662;-83
2023/09/01 08:46:39;;;;;;;8.85;4.22;;;19.10;93.60;;;;;;5012650;28;20140;-84
2023/09/01 08:49:05;;;;;;;9.55;3.42;;;19.00;93.50;;;;;;4994978;28;20029;-84
2023/09/01 08:51:31;;;;;;;6.78;3.08;;;19.00;93.40;;;;;;4995916;28;20029;-83
2023/09/01 08:53:57;;;;;;;8.25;3.35;;;19.10;93.30;;;;;;4994926;28;20033;-83
2023/09/01 08:56:23;;;;;;;7.47;2.97;;;19.10;93.30;;;;;;5013878;28;20034;-82
2023/09/01 08:58:49;;;;;;;7.05;3.28;;;19.10;93.20;;;;;;5017596;28;20030;-83
2023/09/01 09:01:16;;;;;;;6.35;2.70;;;19.00;93.20;;;;;;4999709;28;20458;-84
2023/09/01 09:03:42;;;;;;;7.43;3.00;;;19.00;93.10;;;;;;5003481;28;20022;-83
2023/09/01 09:06:12;;;;;;;7.15;3.05;;;19.00;93.10;;;;;;5021545;28;20097;-83
2023/09/01 09:08:38;;;;;;;8.43;3.58;;;19.00;93.30;;;;;;5004627;28;20026;-84
2023/09/01 09:11:12;;;;;;;7.57;2.97;;;19.00;93.00;;;;;;5003130;28;20033;-83
2023/09/01 09:13:39;;;;;;;19.65;4.57;;;19.00;92.90;;;;;;4986616;28;20050;-83
2023/09/01 09:16:12;;;;;;;10.93;3.25;;;19.00;92.90;;;;;;5001058;28;20026;-84
2023/09/01 09:18:40;;;;;;;7.53;3.28;;;19.00;92.90;;;;;;4999719;28;20053;-82
2023/09/01 09:21:29;;;;;;;6.85;2.97;;;19.00;92.90;;;;;;5000227;28;20418;-83
2023/09/01 09:24:00;;;;;;;12.27;3.80;;;19.10;92.90;;;;;;4999545;28;20030;-84
2023/09/01 09:26:30;;;;;;;12.57;4.28;;;19.10;92.90;;;;;;4980370;28;20529;-84
2023/09/01 09:29:06;;;;;;;15.10;3.97;;;19.10;92.80;;;;;;5000093;28;20462;-83
2023/09/01 09:31:40;;;;;;;12.00;3.88;;;19.10;92.70;;;;;;4997020;28;20101;-83
2023/09/01 09:34:15;;;;;;;7.80;3.40;;;19.20;92.70;;;;;;4991766;28;20026;-84
2023/09/01 09:36:41;;;;;;;5.30;3.30;;;19.10;92.70;;;;;;4991115;28;20026;-83
2023/09/01 09:39:23;;;;;;;8.50;3.40;;;19.20;92.60;;;;;;4991459;28;20463;-83
2023/09/01 09:41:49;;;;;;;6.63;3.33;;;19.10;92.60;;;;;;4991974;28;20041;-83
2023/09/01 09:44:29;;;;;;;6.45;3.47;;;19.10;92.50;;;;;;5000006;28;20022;-84
2023/09/01 09:46:55;;;;;;;15.00;5.13;;;19.10;92.50;;;;;;5012544;28;20038;-84
2023/09/01 09:49:22;;;;;;;12.65;4.40;;;19.10;92.50;;;;;;5014077;28;20077;-84
2023/09/01 09:51:50;;;;;;;11.05;4.10;;;19.10;92.50;;;;;;5013943;28;20033;-84
2023/09/01 09:54:22;;;;;;;9.15;4.18;;;19.10;92.60;;;;;;5013897;28;20033;-85
2023/09/01 09:56:52;;;;;;;9.57;4.00;;;19.10;92.60;;;;;;5013570;28;20064;-85
2023/09/01 09:59:28;;;;;;;8.68;4.45;;;19.10;92.50;;;;;;5015328;28;20070;-84
2023/09/01 10:01:56;;;;;;;10.57;4.47;;;19.00;92.50;;;;;;5013850;28;20476;-84
2023/09/01 10:04:23;;;;;;;11.23;5.07;;;19.00;92.60;;;;;;5015571;28;20030;-83
2023/09/01 10:06:49;;;;;;;8.38;4.38;;;19.00;92.60;;;;;;5014035;28;20034;-83
2023/09/01 10:09:17;;;;;;;11.15;4.35;;;19.00;92.70;;;;;;5013435;28;20061;-83
2023/09/01 10:11:45;;;;;;;7.88;5.05;;;19.00;92.70;;;;;;5012320;28;20037;-83
2023/09/01 10:14:13;;;;;;;10.00;4.85;;;18.90;92.70;;;;;;5014431;28;20404;-84
2023/09/01 10:16:40;;;;;;;7.10;4.20;;;18.90;92.80;;;;;;4997170;28;20029;-84
2023/09/01 10:19:09;;;;;;;6.07;3.20;;;18.90;92.90;;;;;;4993924;28;20025;-84
2023/09/01 10:21:35;;;;;;;7.68;3.83;;;18.90;92.90;;;;;;4996733;28;20948;-83
2023/09/01 10:24:02;;;;;;;5.95;3.80;;;18.80;93.00;;;;;;4997580;28;20113;-84
2023/09/01 10:26:30;;;;;;;6.38;3.75;;;18.80;93.20;;;;;;4996797;28;20030;-84
2023/09/01 10:29:04;;;;;;;7.22;3.75;;;18.80;93.30;;;;;;4995539;28;20022;-83
2023/09/01 10:31:36;;;;;;;8.85;4.57;;;18.80;93.40;;;;;;4994217;28;20057;-84
2023/09/01 10:34:15;;;;;;;8.05;3.95;;;18.70;93.60;;;;;;4996190;28;20034;-85
2023/09/01 10:36:45;;;;;;;5.50;2.88;;;18.70;93.60;;;;;;4979546;28;20616;-84
2023/09/01 10:39:18;;;;;;;5.15;3.30;;;18.70;93.80;;;;;;4982830;28;20030;-85
2023/09/01 10:41:57;;;;;;;6.45;3.03;;;18.60;93.70;;;;;;5001230;28;20038;-83
2023/09/01 10:44:26;;;;;;;4.60;2.33;;;18.70;93.80;;;;;;4998968;28;20018;-84
2023/09/01 10:46:52;;;;;;;5.15;2.45;;;18.60;93.90;;;;;;5012212;28;20061;-84
2023/09/01 10:49:17;;;;;;;4.68;2.53;;;18.60;94.00;;;;;;4997601;28;20026;-83
2023/09/01 10:51:46;;;;;;;5.80;2.17;;;18.60;94.10;;;;;;4996801;28;20030;-84
2023/09/01 10:54:14;;;;;;;3.78;2.35;;;18.60;94.10;;;;;;4995039;28;20028;-84
2023/09/01 10:57:10;;;;;;;4.55;2.47;;;18.60;94.20;;;;;;5013459;28;20070;-85
2023/09/01 10:59:35;;;;;;;5.70;2.17;;;18.60;94.20;;;;;;5002512;28;20029;-85
2023/09/01 11:02:18;;;;;;;5.45;2.22;;;18.60;94.30;;;;;;5017724;28;20085;-84
2023/09/01 11:04:44;;;;;;;4.35;2.63;;;18.60;94.40;;;;;;4996290;28;20022;-84
2023/09/01 11:07:10;;;;;;;4.72;2.25;;;18.70;94.50;;;;;;4995937;28;20026;-84
2023/09/01 11:09:36;;;;;;;4.38;2.60;;;18.70;94.50;;;;;;5013372;28;20026;-84
2023/09/01 11:12:07;;;;;;;5.85;3.05;;;18.70;94.60;;;;;;4997436;28;20037;-82
2023/09/01 11:14:37;;;;;;;4.53;2.65;;;18.80;94.60;;;;;;4997819;28;20092;-84
2023/09/01 11:17:03;;;;;;;6.47;3.03;;;18.80;94.60;;;;;;4996147;28;20034;-83
2023/09/01 11:19:33;;;;;;;5.28;3.17;;;18.80;94.60;;;;;;4996190;28;20650;-83
2023/09/01 11:21:59;;;;;;;6.07;3.28;;;18.80;94.70;;;;;;4995487;28;20056;-83
2023/09/01 11:24:25;;;;;;;5.43;2.83;;;18.80;94.60;;;;;;5011605;28;20025;-84
2023/09/01 11:27:28;;;;;;;5.65;2.95;;;18.70;94.60;;;;;;4994565;28;20394;-83
2023/09/01 11:29:54;;;;;;;3.78;2.22;;;18.80;94.60;;;;;;4994219;28;20029;-84
2023/09/01 11:32:29;;;;;;;5.22;2.88;;;18.80;94.60;;;;;;4994969;28;20033;-84
2023/09/01 11:34:55;;;;;;;5.65;2.78;;;18.80;94.60;;;;;;5011948;28;20045;-84
2023/09/01 11:37:37;;;;;;;7.57;3.00;;;18.80;94.60;;;;;;5009512;28;20026;-84
2023/09/01 11:40:07;;;;;;;7.00;3.25;;;18.90;94.70;;;;;;4987140;28;20372;-84
2023/09/01 11:42:35;;;;;;;6.10;3.33;;;18.90;94.70;;;;;;4982795;28;20046;-83
2023/09/01 11:45:06;;;;;;;6.05;3.85;;;18.90;94.80;;;;;;5008991;28;20056;-83
2023/09/01 11:47:32;;;;;;;5.40;3.40;;;18.90;94.90;;;;;;5010704;28;20042;-84
2023/09/01 11:49:58;;;;;;;5.88;3.47;;;18.90;94.90;;;;;;4991773;28;20112;-82
2023/09/01 11:52:24;;;;;;;5.80;3.38;;;18.90;95.00;;;;;;4993164;28;20022;-90
